sensor_id;sensor_type;location;lat;lon;timestamp;P1;durP1;ratioP1;P2;durP2;ratioP2
29362;SDS011;16349;53.672;10.014;2022-12-07T00:01:03;12.97;;;9.37;;
29362;SDS011;16349;53.672;10.014;2022-12-07T00:03:31;15.67;;;10.47;;
29362;SDS011;16349;53.672;10.014;2022-12-07T00:05:59;14.17;;;9.80;;
29362;SDS011;16349;53.672;10.014;2022-12-07T00:08:26;15.60;;;10.93;;
29362;SDS011;16349;53.672;10.014;2022-12-07T00:10:54;14.87;;;9.97;;
29362;SDS011;16349;53.672;10.014;2022-12-07T00:13:22;16.47;;;10.67;;
29362;SDS011;16349;53.672;10.014;2022-12-07T00:15:49;18.30;;;10.17;;
29362;SDS011;16349;53.672;10.014;2022-12-07T00:18:15;15.83;;;10.90;;
29362;SDS011;16349;53.672;10.014;2022-12-07T00:20:42;16.03;;;11.60;;
29362;SDS011;16349;53.672;10.014;2022-12-07T00:23:09;16.07;;;10.33;;
29362;SDS011;16349;53.672;10.014;2022-12-07T00:25:36;16.50;;;10.27;;
29362;SDS011;16349;53.672;10.014;2022-12-07T00:28:03;14.77;;;10.10;;
29362;SDS011;16349;53.672;10.014;2022-12-07T00:30:31;18.00;;;11.07;;
29362;SDS011;16349;53.672;10.014;2022-12-07T00:32:58;16.40;;;11.40;;
29362;SDS011;16349;53.672;10.014;2022-12-07T00:35:24;16.93;;;11.13;;
29362;SDS011;16349;53.672;10.014;2022-12-07T00:37:52;12.83;;;10.20;;
29362;SDS011;16349;53.672;10.014;2022-12-07T00:40:19;16.03;;;10.37;;
29362;SDS011;16349;53.672;10.014;2022-12-07T00:42:45;15.23;;;10.60;;
29362;SDS011;16349;53.672;10.014;2022-12-07T00:45:13;13.07;;;10.50;;
29362;SDS011;16349;53.672;10.014;2022-12-07T00:47:41;15.30;;;10.63;;
29362;SDS011;16349;53.672;10.014;2022-12-07T00:50:08;13.80;;;11.17;;
29362;SDS011;16349;53.672;10.014;2022-12-07T00:52:34;15.33;;;10.97;;
29362;SDS011;16349;53.672;10.014;2022-12-07T00:55:01;19.73;;;11.10;;
29362;SDS011;16349;53.672;10.014;2022-12-07T00:57:28;16.50;;;11.23;;
29362;SDS011;16349;53.672;10.014;2022-12-07T00:59:57;13.63;;;10.80;;
29362;SDS011;16349;53.672;10.014;2022-12-07T01:02:25;13.60;;;10.50;;
29362;SDS011;16349;53.672;10.014;2022-12-07T01:04:53;16.33;;;10.67;;
29362;SDS011;16349;53.672;10.014;2022-12-07T01:07:19;16.57;;;11.00;;
29362;SDS011;16349;53.672;10.014;2022-12-07T01:09:46;13.93;;;10.33;;
29362;SDS011;16349;53.672;10.014;2022-12-07T01:12:13;16.00;;;10.60;;
29362;SDS011;16349;53.672;10.014;2022-12-07T01:14:41;14.07;;;10.03;;
29362;SDS011;16349;53.672;10.014;2022-12-07T01:17:07;15.23;;;10.37;;
29362;SDS011;16349;53.672;10.014;2022-12-07T01:19:34;11.60;;;9.17;;
29362;SDS011;16349;53.672;10.014;2022-12-07T01:22:02;13.00;;;8.80;;
29362;SDS011;16349;53.672;10.014;2022-12-07T01:24:29;11.40;;;8.67;;
29362;SDS011;16349;53.672;10.014;2022-12-07T01:26:56;15.13;;;8.47;;
29362;SDS011;16349;53.672;10.014;2022-12-07T01:29:23;12.90;;;8.10;;
29362;SDS011;16349;53.672;10.014;2022-12-07T01:31:49;12.73;;;8.20;;
29362;SDS011;16349;53.672;10.014;2022-12-07T01:34:17;9.97;;;7.93;;
29362;SDS011;16349;53.672;10.014;2022-12-07T01:36:44;9.63;;;8.10;;
29362;SDS011;16349;53.672;10.014;2022-12-07T01:39:12;11.40;;;7.30;;
29362;SDS011;16349;53.672;10.014;2022-12-07T01:41:40;9.90;;;7.63;;
29362;SDS011;16349;53.672;10.014;2022-12-07T01:44:15;10.87;;;7.13;;
29362;SDS011;16349;53.672;10.014;2022-12-07T01:46:44;11.33;;;7.20;;
29362;SDS011;16349;53.672;10.014;2022-12-07T01:49:14;11.33;;;7.70;;
29362;SDS011;16349;53.672;10.014;2022-12-07T01:51:45;11.00;;;6.87;;
29362;SDS011;16349;53.672;10.014;2022-12-07T01:54:14;9.60;;;6.80;;
29362;SDS011;16349;53.672;10.014;2022-12-07T01:56:45;8.67;;;6.53;;
29362;SDS011;16349;53.672;10.014;2022-12-07T01:59:15;12.67;;;6.87;;
29362;SDS011;16349;53.672;10.014;2022-12-07T02:01:43;13.33;;;6.90;;
29362;SDS011;16349;53.672;10.014;2022-12-07T02:04:11;11.60;;;6.50;;
29362;SDS011;16349;53.672;10.014;2022-12-07T02:06:38;11.87;;;6.90;;
29362;SDS011;16349;53.672;10.014;2022-12-07T02:09:07;9.83;;;6.33;;
29362;SDS011;16349;53.672;10.014;2022-12-07T02:11:35;10.23;;;6.50;;
29362;SDS011;16349;53.672;10.014;2022-12-07T02:14:02;11.67;;;6.37;;
29362;SDS011;16349;53.672;10.014;2022-12-07T02:16:31;11.97;;;5.90;;
29362;SDS011;16349;53.672;10.014;2022-12-07T02:19:10;7.13;;;5.47;;
29362;SDS011;16349;53.672;10.014;2022-12-07T02:22:00;10.97;;;5.93;;
29362;SDS011;16349;53.672;10.014;2022-12-07T02:24:38;7.53;;;5.40;;
29362;SDS011;16349;53.672;10.014;2022-12-07T02:27:29;10.23;;;6.57;;
29362;SDS011;16349;53.672;10.014;2022-12-07T02:30:08;10.70;;;5.33;;
29362;SDS011;16349;53.672;10.014;2022-12-07T02:32:40;8.13;;;4.87;;
29362;SDS011;16349;53.672;10.014;2022-12-07T02:35:12;6.47;;;4.40;;
29362;SDS011;16349;53.672;10.014;2022-12-07T02:37:47;5.03;;;4.23;;
29362;SDS011;16349;53.672;10.014;2022-12-07T02:40:26;10.47;;;4.47;;
29362;SDS011;16349;53.672;10.014;2022-12-07T02:42:58;5.87;;;3.83;;
29362;SDS011;16349;53.672;10.014;2022-12-07T02:45:31;5.13;;;4.07;;
29362;SDS011;16349;53.672;10.014;2022-12-07T02:48:02;3.63;;;3.30;;
29362;SDS011;16349;53.672;10.014;2022-12-07T02:50:31;5.53;;;3.37;;
29362;SDS011;16349;53.672;10.014;2022-12-07T02:52:58;6.03;;;3.50;;
29362;SDS011;16349;53.672;10.014;2022-12-07T02:55:26;4.93;;;3.10;;
29362;SDS011;16349;53.672;10.014;2022-12-07T02:58:03;5.33;;;3.40;;
29362;SDS011;16349;53.672;10.014;2022-12-07T03:00:41;5.40;;;3.10;;
29362;SDS011;16349;53.672;10.014;2022-12-07T03:03:17;6.03;;;3.10;;
29362;SDS011;16349;53.672;10.014;2022-12-07T03:08:35;5.70;;;2.20;;
29362;SDS011;16349;53.672;10.014;2022-12-07T03:11:10;3.60;;;2.57;;
29362;SDS011;16349;53.672;10.014;2022-12-07T03:13:39;2.70;;;2.07;;
29362;SDS011;16349;53.672;10.014;2022-12-07T03:16:14;2.80;;;1.70;;
29362;SDS011;16349;53.672;10.014;2022-12-07T03:18:43;3.63;;;1.90;;
29362;SDS011;16349;53.672;10.014;2022-12-07T03:21:14;2.20;;;1.63;;
29362;SDS011;16349;53.672;10.014;2022-12-07T03:23:44;2.97;;;1.97;;
29362;SDS011;16349;53.672;10.014;2022-12-07T03:26:14;2.43;;;1.43;;
29362;SDS011;16349;53.672;10.014;2022-12-07T03:28:46;4.80;;;1.97;;
29362;SDS011;16349;53.672;10.014;2022-12-07T03:31:19;1.40;;;1.30;;
29362;SDS011;16349;53.672;10.014;2022-12-07T03:33:52;1.47;;;1.00;;
29362;SDS011;16349;53.672;10.014;2022-12-07T03:36:29;2.60;;;1.70;;
29362;SDS011;16349;53.672;10.014;2022-12-07T03:39:22;2.53;;;0.90;;
29362;SDS011;16349;53.672;10.014;2022-12-07T03:41:54;2.40;;;1.10;;
29362;SDS011;16349;53.672;10.014;2022-12-07T03:44:22;4.10;;;1.27;;
29362;SDS011;16349;53.672;10.014;2022-12-07T03:46:53;1.87;;;1.00;;
29362;SDS011;16349;53.672;10.014;2022-12-07T03:49:30;2.40;;;1.00;;
29362;SDS011;16349;53.672;10.014;2022-12-07T03:52:04;1.20;;;1.10;;
29362;SDS011;16349;53.672;10.014;2022-12-07T03:54:39;3.57;;;1.30;;
29362;SDS011;16349;53.672;10.014;2022-12-07T03:57:09;6.00;;;1.17;;
29362;SDS011;16349;53.672;10.014;2022-12-07T03:59:38;1.57;;;1.20;;
29362;SDS011;16349;53.672;10.014;2022-12-07T04:02:08;3.23;;;1.43;;
29362;SDS011;16349;53.672;10.014;2022-12-07T04:04:37;1.83;;;1.50;;
29362;SDS011;16349;53.672;10.014;2022-12-07T04:07:05;2.87;;;1.20;;
29362;SDS011;16349;53.672;10.014;2022-12-07T04:09:32;2.13;;;1.40;;
29362;SDS011;16349;53.672;10.014;2022-12-07T04:11:59;3.70;;;1.30;;
29362;SDS011;16349;53.672;10.014;2022-12-07T04:14:29;4.90;;;1.57;;
29362;SDS011;16349;53.672;10.014;2022-12-07T04:16:56;5.80;;;1.67;;
29362;SDS011;16349;53.672;10.014;2022-12-07T04:19:27;2.83;;;1.50;;
29362;SDS011;16349;53.672;10.014;2022-12-07T04:21:55;4.37;;;1.80;;
29362;SDS011;16349;53.672;10.014;2022-12-07T04:24:23;2.37;;;2.13;;
29362;SDS011;16349;53.672;10.014;2022-12-07T04:26:50;2.23;;;1.73;;
29362;SDS011;16349;53.672;10.014;2022-12-07T04:29:18;3.90;;;1.60;;
29362;SDS011;16349;53.672;10.014;2022-12-07T04:31:46;2.00;;;1.80;;
29362;SDS011;16349;53.672;10.014;2022-12-07T04:34:13;3.40;;;1.87;;
29362;SDS011;16349;53.672;10.014;2022-12-07T04:36:42;5.30;;;2.67;;
29362;SDS011;16349;53.672;10.014;2022-12-07T04:39:13;2.70;;;1.80;;
29362;SDS011;16349;53.672;10.014;2022-12-07T04:41:45;2.87;;;1.90;;
29362;SDS011;16349;53.672;10.014;2022-12-07T04:44:13;2.20;;;2.00;;
29362;SDS011;16349;53.672;10.014;2022-12-07T04:46:41;2.97;;;1.80;;
29362;SDS011;16349;53.672;10.014;2022-12-07T04:49:08;2.53;;;1.80;;
29362;SDS011;16349;53.672;10.014;2022-12-07T04:51:35;4.90;;;2.67;;
29362;SDS011;16349;53.672;10.014;2022-12-07T04:54:04;2.77;;;1.87;;
29362;SDS011;16349;53.672;10.014;2022-12-07T04:56:31;2.70;;;1.97;;
29362;SDS011;16349;53.672;10.014;2022-12-07T04:59:00;4.73;;;2.60;;
29362;SDS011;16349;53.672;10.014;2022-12-07T05:01:27;6.00;;;1.80;;
29362;SDS011;16349;53.672;10.014;2022-12-07T05:03:54;2.30;;;1.77;;
29362;SDS011;16349;53.672;10.014;2022-12-07T05:06:21;4.03;;;2.00;;
29362;SDS011;16349;53.672;10.014;2022-12-07T05:08:48;3.67;;;2.10;;
29362;SDS011;16349;53.672;10.014;2022-12-07T05:11:16;2.00;;;1.80;;
29362;SDS011;16349;53.672;10.014;2022-12-07T05:13:58;5.97;;;2.23;;
29362;SDS011;16349;53.672;10.014;2022-12-07T05:16:25;6.27;;;2.13;;
29362;SDS011;16349;53.672;10.014;2022-12-07T05:18:52;7.33;;;3.70;;
29362;SDS011;16349;53.672;10.014;2022-12-07T05:21:19;3.50;;;2.53;;
29362;SDS011;16349;53.672;10.014;2022-12-07T05:23:46;5.77;;;2.47;;
29362;SDS011;16349;53.672;10.014;2022-12-07T05:26:13;2.97;;;2.40;;
29362;SDS011;16349;53.672;10.014;2022-12-07T05:28:41;3.53;;;2.07;;
29362;SDS011;16349;53.672;10.014;2022-12-07T05:31:08;2.87;;;2.60;;
29362;SDS011;16349;53.672;10.014;2022-12-07T05:33:35;2.40;;;1.90;;
29362;SDS011;16349;53.672;10.014;2022-12-07T05:36:02;5.03;;;2.30;;
29362;SDS011;16349;53.672;10.014;2022-12-07T05:38:30;5.77;;;2.60;;
29362;SDS011;16349;53.672;10.014;2022-12-07T05:40:59;3.37;;;2.57;;
29362;SDS011;16349;53.672;10.014;2022-12-07T05:43:27;3.60;;;2.97;;
29362;SDS011;16349;53.672;10.014;2022-12-07T05:45:56;3.83;;;2.80;;
29362;SDS011;16349;53.672;10.014;2022-12-07T05:48:23;3.93;;;2.73;;
29362;SDS011;16349;53.672;10.014;2022-12-07T05:50:51;4.50;;;2.80;;
29362;SDS011;16349;53.672;10.014;2022-12-07T05:53:18;5.13;;;2.67;;
29362;SDS011;16349;53.672;10.014;2022-12-07T05:55:46;4.23;;;2.73;;
29362;SDS011;16349;53.672;10.014;2022-12-07T05:58:13;3.10;;;2.80;;
29362;SDS011;16349;53.672;10.014;2022-12-07T06:00:58;3.53;;;2.97;;
29362;SDS011;16349;53.672;10.014;2022-12-07T06:03:25;4.80;;;3.10;;
29362;SDS011;16349;53.672;10.014;2022-12-07T06:05:52;4.63;;;3.33;;
29362;SDS011;16349;53.672;10.014;2022-12-07T06:08:19;3.53;;;2.63;;
29362;SDS011;16349;53.672;10.014;2022-12-07T06:10:46;6.20;;;3.13;;
29362;SDS011;16349;53.672;10.014;2022-12-07T06:13:35;4.97;;;2.87;;
29362;SDS011;16349;53.672;10.014;2022-12-07T06:16:02;3.57;;;2.57;;
29362;SDS011;16349;53.672;10.014;2022-12-07T06:18:29;3.47;;;2.90;;
29362;SDS011;16349;53.672;10.014;2022-12-07T06:20:56;8.73;;;3.20;;
29362;SDS011;16349;53.672;10.014;2022-12-07T06:23:23;3.70;;;2.77;;
29362;SDS011;16349;53.672;10.014;2022-12-07T06:25:50;5.33;;;3.30;;
29362;SDS011;16349;53.672;10.014;2022-12-07T06:28:18;5.13;;;3.00;;
29362;SDS011;16349;53.672;10.014;2022-12-07T06:30:45;6.50;;;3.07;;
29362;SDS011;16349;53.672;10.014;2022-12-07T06:33:13;4.73;;;2.47;;
29362;SDS011;16349;53.672;10.014;2022-12-07T06:35:40;3.87;;;2.87;;
29362;SDS011;16349;53.672;10.014;2022-12-07T06:38:08;4.80;;;2.67;;
29362;SDS011;16349;53.672;10.014;2022-12-07T06:40:35;5.07;;;3.00;;
29362;SDS011;16349;53.672;10.014;2022-12-07T06:43:02;4.00;;;2.70;;
29362;SDS011;16349;53.672;10.014;2022-12-07T06:45:29;3.00;;;2.33;;
29362;SDS011;16349;53.672;10.014;2022-12-07T06:47:55;6.73;;;3.00;;
29362;SDS011;16349;53.672;10.014;2022-12-07T06:50:24;4.60;;;2.80;;
29362;SDS011;16349;53.672;10.014;2022-12-07T06:52:51;3.77;;;2.57;;
29362;SDS011;16349;53.672;10.014;2022-12-07T06:55:18;3.73;;;2.87;;
29362;SDS011;16349;53.672;10.014;2022-12-07T06:57:45;4.33;;;2.60;;
29362;SDS011;16349;53.672;10.014;2022-12-07T07:00:12;6.40;;;3.20;;
29362;SDS011;16349;53.672;10.014;2022-12-07T07:02:39;3.23;;;2.83;;
29362;SDS011;16349;53.672;10.014;2022-12-07T07:05:07;5.53;;;3.10;;
29362;SDS011;16349;53.672;10.014;2022-12-07T07:07:35;6.10;;;2.53;;
29362;SDS011;16349;53.672;10.014;2022-12-07T07:10:01;2.60;;;2.30;;
29362;SDS011;16349;53.672;10.014;2022-12-07T07:12:29;4.27;;;2.53;;
29362;SDS011;16349;53.672;10.014;2022-12-07T07:14:56;6.37;;;2.37;;
29362;SDS011;16349;53.672;10.014;2022-12-07T07:17:23;5.20;;;2.47;;
29362;SDS011;16349;53.672;10.014;2022-12-07T07:19:50;5.43;;;2.60;;
29362;SDS011;16349;53.672;10.014;2022-12-07T07:22:17;6.57;;;2.80;;
29362;SDS011;16349;53.672;10.014;2022-12-07T07:24:45;3.93;;;2.03;;
29362;SDS011;16349;53.672;10.014;2022-12-07T07:27:12;3.23;;;2.33;;
29362;SDS011;16349;53.672;10.014;2022-12-07T07:29:39;4.13;;;2.30;;
29362;SDS011;16349;53.672;10.014;2022-12-07T07:32:06;3.63;;;2.40;;
29362;SDS011;16349;53.672;10.014;2022-12-07T07:34:33;3.87;;;2.17;;
29362;SDS011;16349;53.672;10.014;2022-12-07T07:37:00;4.73;;;2.10;;
29362;SDS011;16349;53.672;10.014;2022-12-07T07:39:27;5.40;;;2.60;;
29362;SDS011;16349;53.672;10.014;2022-12-07T07:41:55;2.43;;;2.10;;
29362;SDS011;16349;53.672;10.014;2022-12-07T07:44:25;2.70;;;1.87;;
29362;SDS011;16349;53.672;10.014;2022-12-07T07:46:52;3.90;;;2.13;;
29362;SDS011;16349;53.672;10.014;2022-12-07T07:49:19;2.40;;;1.63;;
29362;SDS011;16349;53.672;10.014;2022-12-07T07:51:46;6.80;;;2.20;;
29362;SDS011;16349;53.672;10.014;2022-12-07T07:54:13;3.43;;;1.77;;
29362;SDS011;16349;53.672;10.014;2022-12-07T07:56:40;2.43;;;1.90;;
29362;SDS011;16349;53.672;10.014;2022-12-07T07:59:08;2.80;;;1.90;;
29362;SDS011;16349;53.672;10.014;2022-12-07T08:01:35;7.73;;;2.00;;
29362;SDS011;16349;53.672;10.014;2022-12-07T08:04:02;4.47;;;1.80;;
29362;SDS011;16349;53.672;10.014;2022-12-07T08:06:28;1.97;;;1.40;;
29362;SDS011;16349;53.672;10.014;2022-12-07T08:08:55;4.97;;;1.60;;
29362;SDS011;16349;53.672;10.014;2022-12-07T08:11:23;3.90;;;1.73;;
29362;SDS011;16349;53.672;10.014;2022-12-07T08:13:50;2.70;;;1.30;;
29362;SDS011;16349;53.672;10.014;2022-12-07T08:16:18;3.00;;;1.43;;
29362;SDS011;16349;53.672;10.014;2022-12-07T08:18:45;3.63;;;1.90;;
29362;SDS011;16349;53.672;10.014;2022-12-07T08:21:13;4.47;;;1.40;;
29362;SDS011;16349;53.672;10.014;2022-12-07T08:23:41;4.60;;;1.50;;
29362;SDS011;16349;53.672;10.014;2022-12-07T08:26:09;3.63;;;1.27;;
29362;SDS011;16349;53.672;10.014;2022-12-07T08:28:36;3.80;;;1.30;;
29362;SDS011;16349;53.672;10.014;2022-12-07T08:31:03;1.73;;;1.30;;
29362;SDS011;16349;53.672;10.014;2022-12-07T08:33:33;4.80;;;1.13;;
29362;SDS011;16349;53.672;10.014;2022-12-07T08:36:00;6.83;;;1.87;;
29362;SDS011;16349;53.672;10.014;2022-12-07T08:38:27;8.17;;;1.70;;
29362;SDS011;16349;53.672;10.014;2022-12-07T08:40:54;7.03;;;1.47;;
29362;SDS011;16349;53.672;10.014;2022-12-07T08:43:22;4.40;;;1.50;;
29362;SDS011;16349;53.672;10.014;2022-12-07T08:45:49;3.73;;;1.17;;
29362;SDS011;16349;53.672;10.014;2022-12-07T08:48:29;5.93;;;1.27;;
29362;SDS011;16349;53.672;10.014;2022-12-07T08:50:58;4.03;;;1.40;;
29362;SDS011;16349;53.672;10.014;2022-12-07T08:53:27;3.30;;;1.17;;
29362;SDS011;16349;53.672;10.014;2022-12-07T08:55:54;3.90;;;1.27;;
29362;SDS011;16349;53.672;10.014;2022-12-07T08:58:22;5.30;;;1.30;;
29362;SDS011;16349;53.672;10.014;2022-12-07T09:00:49;1.97;;;1.30;;
29362;SDS011;16349;53.672;10.014;2022-12-07T09:03:16;3.73;;;1.10;;
29362;SDS011;16349;53.672;10.014;2022-12-07T09:05:43;4.57;;;1.03;;
29362;SDS011;16349;53.672;10.014;2022-12-07T09:08:11;7.13;;;1.67;;
29362;SDS011;16349;53.672;10.014;2022-12-07T09:10:38;3.87;;;1.20;;
29362;SDS011;16349;53.672;10.014;2022-12-07T09:13:05;4.63;;;1.20;;
29362;SDS011;16349;53.672;10.014;2022-12-07T09:15:32;3.73;;;1.30;;
29362;SDS011;16349;53.672;10.014;2022-12-07T09:17:59;3.73;;;1.03;;
29362;SDS011;16349;53.672;10.014;2022-12-07T09:20:25;3.77;;;1.20;;
29362;SDS011;16349;53.672;10.014;2022-12-07T09:22:52;6.77;;;1.20;;
29362;SDS011;16349;53.672;10.014;2022-12-07T09:25:20;3.23;;;1.37;;
29362;SDS011;16349;53.672;10.014;2022-12-07T09:27:47;7.23;;;1.30;;
29362;SDS011;16349;53.672;10.014;2022-12-07T09:30:13;2.83;;;1.37;;
29362;SDS011;16349;53.672;10.014;2022-12-07T09:32:40;3.87;;;1.13;;
29362;SDS011;16349;53.672;10.014;2022-12-07T09:35:07;10.67;;;1.93;;
29362;SDS011;16349;53.672;10.014;2022-12-07T09:37:35;1.83;;;1.13;;
29362;SDS011;16349;53.672;10.014;2022-12-07T09:40:03;4.70;;;1.00;;
29362;SDS011;16349;53.672;10.014;2022-12-07T09:42:34;2.33;;;1.27;;
29362;SDS011;16349;53.672;10.014;2022-12-07T09:45:04;3.23;;;0.90;;
29362;SDS011;16349;53.672;10.014;2022-12-07T09:47:33;2.93;;;1.97;;
29362;SDS011;16349;53.672;10.014;2022-12-07T09:50:02;7.77;;;1.40;;
29362;SDS011;16349;53.672;10.014;2022-12-07T09:52:31;3.33;;;1.33;;
29362;SDS011;16349;53.672;10.014;2022-12-07T09:54:58;6.07;;;1.40;;
29362;SDS011;16349;53.672;10.014;2022-12-07T09:57:27;4.00;;;0.97;;
29362;SDS011;16349;53.672;10.014;2022-12-07T09:59:56;4.07;;;0.87;;
29362;SDS011;16349;53.672;10.014;2022-12-07T10:02:34;3.00;;;1.23;;
29362;SDS011;16349;53.672;10.014;2022-12-07T10:05:04;4.07;;;1.90;;
29362;SDS011;16349;53.672;10.014;2022-12-07T10:07:33;3.90;;;1.20;;
29362;SDS011;16349;53.672;10.014;2022-12-07T10:10:01;4.50;;;1.13;;
29362;SDS011;16349;53.672;10.014;2022-12-07T10:12:29;4.20;;;1.20;;
29362;SDS011;16349;53.672;10.014;2022-12-07T10:14:59;5.13;;;0.93;;
29362;SDS011;16349;53.672;10.014;2022-12-07T10:17:29;3.73;;;0.80;;
29362;SDS011;16349;53.672;10.014;2022-12-07T10:22:59;6.60;;;1.07;;
29362;SDS011;16349;53.672;10.014;2022-12-07T10:25:28;3.30;;;1.07;;
29362;SDS011;16349;53.672;10.014;2022-12-07T10:27:59;4.40;;;1.00;;
29362;SDS011;16349;53.672;10.014;2022-12-07T10:30:29;2.73;;;1.07;;
29362;SDS011;16349;53.672;10.014;2022-12-07T10:32:58;2.07;;;1.30;;
29362;SDS011;16349;53.672;10.014;2022-12-07T10:35:25;5.27;;;1.40;;
29362;SDS011;16349;53.672;10.014;2022-12-07T10:37:54;2.97;;;1.40;;
29362;SDS011;16349;53.672;10.014;2022-12-07T10:40:24;3.67;;;1.10;;
29362;SDS011;16349;53.672;10.014;2022-12-07T10:43:00;4.80;;;1.17;;
29362;SDS011;16349;53.672;10.014;2022-12-07T10:45:34;5.50;;;0.93;;
29362;SDS011;16349;53.672;10.014;2022-12-07T10:48:08;10.17;;;1.00;;
29362;SDS011;16349;53.672;10.014;2022-12-07T10:50:47;5.17;;;0.80;;
29362;SDS011;16349;53.672;10.014;2022-12-07T10:53:32;3.33;;;0.87;;
29362;SDS011;16349;53.672;10.014;2022-12-07T10:56:32;4.40;;;1.23;;
29362;SDS011;16349;53.672;10.014;2022-12-07T10:59:17;1.43;;;0.70;;
29362;SDS011;16349;53.672;10.014;2022-12-07T11:01:59;5.53;;;1.17;;
29362;SDS011;16349;53.672;10.014;2022-12-07T11:04:38;6.63;;;1.17;;
29362;SDS011;16349;53.672;10.014;2022-12-07T11:07:20;4.00;;;1.20;;
29362;SDS011;16349;53.672;10.014;2022-12-07T11:09:59;2.37;;;1.00;;
29362;SDS011;16349;53.672;10.014;2022-12-07T11:12:38;6.60;;;1.23;;
29362;SDS011;16349;53.672;10.014;2022-12-07T11:15:17;4.60;;;0.90;;
29362;SDS011;16349;53.672;10.014;2022-12-07T11:17:52;5.73;;;1.10;;
29362;SDS011;16349;53.672;10.014;2022-12-07T11:20:28;4.00;;;1.07;;
29362;SDS011;16349;53.672;10.014;2022-12-07T11:23:03;1.70;;;0.83;;
29362;SDS011;16349;53.672;10.014;2022-12-07T11:25:42;5.93;;;1.37;;
29362;SDS011;16349;53.672;10.014;2022-12-07T11:28:18;5.40;;;1.00;;
29362;SDS011;16349;53.672;10.014;2022-12-07T11:31:00;3.37;;;1.00;;
29362;SDS011;16349;53.672;10.014;2022-12-07T11:33:37;4.67;;;1.17;;
29362;SDS011;16349;53.672;10.014;2022-12-07T11:36:14;5.13;;;1.00;;
29362;SDS011;16349;53.672;10.014;2022-12-07T11:38:55;3.33;;;1.27;;
29362;SDS011;16349;53.672;10.014;2022-12-07T11:41:27;2.97;;;1.20;;
29362;SDS011;16349;53.672;10.014;2022-12-07T11:43:58;2.67;;;1.00;;
29362;SDS011;16349;53.672;10.014;2022-12-07T11:46:35;3.63;;;0.97;;
29362;SDS011;16349;53.672;10.014;2022-12-07T11:49:14;4.20;;;0.97;;
29362;SDS011;16349;53.672;10.014;2022-12-07T11:51:45;5.83;;;1.50;;
29362;SDS011;16349;53.672;10.014;2022-12-07T11:54:18;5.13;;;1.20;;
29362;SDS011;16349;53.672;10.014;2022-12-07T11:56:49;4.00;;;0.67;;
29362;SDS011;16349;53.672;10.014;2022-12-07T11:59:20;4.23;;;1.03;;
29362;SDS011;16349;53.672;10.014;2022-12-07T12:01:54;8.87;;;1.67;;
29362;SDS011;16349;53.672;10.014;2022-12-07T12:04:32;8.30;;;0.90;;
29362;SDS011;16349;53.672;10.014;2022-12-07T12:07:14;6.70;;;0.83;;
29362;SDS011;16349;53.672;10.014;2022-12-07T12:09:45;6.80;;;1.17;;
29362;SDS011;16349;53.672;10.014;2022-12-07T12:12:21;6.20;;;1.10;;
29362;SDS011;16349;53.672;10.014;2022-12-07T12:15:13;5.93;;;1.67;;
29362;SDS011;16349;53.672;10.014;2022-12-07T12:18:03;5.83;;;1.20;;
29362;SDS011;16349;53.672;10.014;2022-12-07T12:20:39;6.50;;;1.13;;
29362;SDS011;16349;53.672;10.014;2022-12-07T12:23:11;4.47;;;0.83;;
29362;SDS011;16349;53.672;10.014;2022-12-07T12:25:42;3.70;;;1.00;;
29362;SDS011;16349;53.672;10.014;2022-12-07T12:28:18;6.33;;;1.17;;
29362;SDS011;16349;53.672;10.014;2022-12-07T12:31:07;3.33;;;0.87;;
29362;SDS011;16349;53.672;10.014;2022-12-07T12:33:36;3.07;;;0.67;;
29362;SDS011;16349;53.672;10.014;2022-12-07T12:36:18;2.80;;;0.73;;
29362;SDS011;16349;53.672;10.014;2022-12-07T12:38:49;3.30;;;0.73;;
29362;SDS011;16349;53.672;10.014;2022-12-07T12:41:53;3.37;;;0.80;;
29362;SDS011;16349;53.672;10.014;2022-12-07T12:47:40;5.60;;;1.00;;
29362;SDS011;16349;53.672;10.014;2022-12-07T12:50:23;3.43;;;0.90;;
29362;SDS011;16349;53.672;10.014;2022-12-07T12:53:11;6.43;;;0.97;;
29362;SDS011;16349;53.672;10.014;2022-12-07T13:01:48;4.90;;;1.00;;
29362;SDS011;16349;53.672;10.014;2022-12-07T13:04:27;4.70;;;0.73;;
29362;SDS011;16349;53.672;10.014;2022-12-07T13:07:12;5.43;;;0.73;;
29362;SDS011;16349;53.672;10.014;2022-12-07T13:10:01;2.77;;;0.73;;
29362;SDS011;16349;53.672;10.014;2022-12-07T13:12:29;4.27;;;0.80;;
29362;SDS011;16349;53.672;10.014;2022-12-07T13:14:57;2.23;;;0.60;;
29362;SDS011;16349;53.672;10.014;2022-12-07T13:20:40;2.97;;;0.53;;
29362;SDS011;16349;53.672;10.014;2022-12-07T13:23:29;4.67;;;0.90;;
29362;SDS011;16349;53.672;10.014;2022-12-07T13:26:04;5.63;;;0.63;;
29362;SDS011;16349;53.672;10.014;2022-12-07T13:28:43;2.10;;;0.70;;
29362;SDS011;16349;53.672;10.014;2022-12-07T13:31:18;5.03;;;0.83;;
29362;SDS011;16349;53.672;10.014;2022-12-07T13:33:52;2.50;;;0.50;;
29362;SDS011;16349;53.672;10.014;2022-12-07T13:36:22;1.90;;;0.60;;
29362;SDS011;16349;53.672;10.014;2022-12-07T13:38:52;4.93;;;1.43;;
29362;SDS011;16349;53.672;10.014;2022-12-07T13:41:23;1.60;;;0.50;;
29362;SDS011;16349;53.672;10.014;2022-12-07T13:43:59;1.23;;;0.47;;
29362;SDS011;16349;53.672;10.014;2022-12-07T13:46:35;3.00;;;0.53;;
29362;SDS011;16349;53.672;10.014;2022-12-07T13:49:16;2.40;;;0.60;;
29362;SDS011;16349;53.672;10.014;2022-12-07T13:51:46;3.27;;;0.90;;
29362;SDS011;16349;53.672;10.014;2022-12-07T13:54:13;2.10;;;0.50;;
29362;SDS011;16349;53.672;10.014;2022-12-07T13:56:42;5.27;;;0.90;;
29362;SDS011;16349;53.672;10.014;2022-12-07T13:59:16;5.37;;;0.60;;
29362;SDS011;16349;53.672;10.014;2022-12-07T14:01:45;3.50;;;0.77;;
29362;SDS011;16349;53.672;10.014;2022-12-07T14:04:18;3.70;;;0.73;;
29362;SDS011;16349;53.672;10.014;2022-12-07T14:06:54;2.87;;;0.67;;
29362;SDS011;16349;53.672;10.014;2022-12-07T14:09:22;3.13;;;0.57;;
29362;SDS011;16349;53.672;10.014;2022-12-07T14:11:51;2.27;;;0.67;;
29362;SDS011;16349;53.672;10.014;2022-12-07T14:14:20;2.63;;;0.50;;
29362;SDS011;16349;53.672;10.014;2022-12-07T14:16:56;2.23;;;0.70;;
29362;SDS011;16349;53.672;10.014;2022-12-07T14:19:40;1.30;;;0.63;;
29362;SDS011;16349;53.672;10.014;2022-12-07T14:22:15;2.40;;;0.70;;
29362;SDS011;16349;53.672;10.014;2022-12-07T14:24:46;2.97;;;0.67;;
29362;SDS011;16349;53.672;10.014;2022-12-07T14:27:18;4.57;;;0.50;;
29362;SDS011;16349;53.672;10.014;2022-12-07T14:29:46;2.77;;;0.70;;
29362;SDS011;16349;53.672;10.014;2022-12-07T14:32:18;5.87;;;0.80;;
29362;SDS011;16349;53.672;10.014;2022-12-07T14:34:52;4.30;;;0.77;;
29362;SDS011;16349;53.672;10.014;2022-12-07T14:37:20;2.23;;;0.80;;
29362;SDS011;16349;53.672;10.014;2022-12-07T14:39:47;2.47;;;1.00;;
29362;SDS011;16349;53.672;10.014;2022-12-07T14:42:13;3.17;;;0.83;;
29362;SDS011;16349;53.672;10.014;2022-12-07T14:44:42;2.87;;;0.70;;
29362;SDS011;16349;53.672;10.014;2022-12-07T14:47:09;1.73;;;0.80;;
29362;SDS011;16349;53.672;10.014;2022-12-07T14:49:37;5.17;;;0.70;;
29362;SDS011;16349;53.672;10.014;2022-12-07T14:52:04;3.30;;;0.80;;
29362;SDS011;16349;53.672;10.014;2022-12-07T14:54:32;2.93;;;0.90;;
29362;SDS011;16349;53.672;10.014;2022-12-07T14:56:59;2.47;;;1.27;;
29362;SDS011;16349;53.672;10.014;2022-12-07T14:59:26;3.53;;;0.80;;
29362;SDS011;16349;53.672;10.014;2022-12-07T15:01:54;3.57;;;0.90;;
29362;SDS011;16349;53.672;10.014;2022-12-07T15:04:21;3.23;;;0.80;;
29362;SDS011;16349;53.672;10.014;2022-12-07T15:06:55;2.10;;;0.73;;
29362;SDS011;16349;53.672;10.014;2022-12-07T15:09:23;3.23;;;0.80;;